createdAt,value
2019-02-23T00:02:22.892Z,199.40
2019-02-23T00:04:51.303Z,208.67
2019-02-23T00:07:19.711Z,197.57
2019-02-23T00:09:48.124Z,187.07
2019-02-23T00:12:16.635Z,189.50
2019-02-23T00:14:45.069Z,167.10
2019-02-23T00:17:13.524Z,201.97
2019-02-23T00:19:41.937Z,186.93
2019-02-23T00:22:10.381Z,201.80
2019-02-23T00:24:39.095Z,194.50
2019-02-23T00:27:07.521Z,189.13
2019-02-23T00:29:36.186Z,189.10
2019-02-23T00:32:04.893Z,209.07
2019-02-23T00:34:33.287Z,200.97
2019-02-23T00:37:01.955Z,197.03
2019-02-23T00:39:30.356Z,219.07
2019-02-23T00:41:58.736Z,224.83
2019-02-23T00:44:27.138Z,211.60
2019-02-23T00:46:55.527Z,236.83
2019-02-23T00:49:23.945Z,209.90
2019-02-23T00:51:52.344Z,237.10
2019-02-23T00:54:20.751Z,240.52
2019-02-23T00:56:49.140Z,243.13
2019-02-23T00:59:17.521Z,225.70
2019-02-23T01:01:45.995Z,225.57
2019-02-23T01:04:14.390Z,243.20
2019-02-23T01:06:42.781Z,227.87
2019-02-23T01:09:11.221Z,221.93
2019-02-23T01:11:39.712Z,241.40
2019-02-23T01:14:08.059Z,247.13
2019-02-23T01:16:36.492Z,244.00
2019-02-23T01:19:04.936Z,249.80
2019-02-23T01:21:33.359Z,238.47
2019-02-23T01:24:02.053Z,221.37
2019-02-23T01:26:30.479Z,227.97
2019-02-23T01:28:59.163Z,276.12
2019-02-23T01:31:27.579Z,259.98
2019-02-23T01:33:55.975Z,265.27
2019-02-23T01:36:24.369Z,257.80
2019-02-23T01:38:53.054Z,258.07
2019-02-23T01:41:21.471Z,255.10
2019-02-23T01:43:49.876Z,253.18
2019-02-23T01:46:18.318Z,282.98
2019-02-23T01:48:46.693Z,304.95
2019-02-23T01:51:15.118Z,354.07
2019-02-23T01:53:43.512Z,336.07
2019-02-23T01:56:11.907Z,341.75
2019-02-23T01:58:40.378Z,323.43
2019-02-23T02:01:09.058Z,338.98
2019-02-23T02:03:37.456Z,290.53
2019-02-23T02:06:05.831Z,298.50
2019-02-23T02:08:34.508Z,302.60
2019-02-23T02:11:02.923Z,313.33
2019-02-23T02:13:31.392Z,315.32
2019-02-23T02:15:59.798Z,313.92
2019-02-23T02:18:28.209Z,310.00
2019-02-23T02:20:56.613Z,280.05
2019-02-23T02:23:25.319Z,299.73
2019-02-23T02:25:53.696Z,263.80
2019-02-23T02:28:22.178Z,307.52
2019-02-23T02:30:50.641Z,274.80
2019-02-23T02:33:19.127Z,276.77
2019-02-23T02:35:47.924Z,255.72
2019-02-23T02:38:16.303Z,293.45
2019-02-23T02:40:44.724Z,292.82
2019-02-23T02:43:13.430Z,243.40
2019-02-23T02:45:42.157Z,265.05
2019-02-23T02:48:10.568Z,234.35
2019-02-23T02:50:38.973Z,243.70
2019-02-23T02:53:07.408Z,257.80
2019-02-23T02:55:36.097Z,247.60
2019-02-23T02:58:04.795Z,278.58
2019-02-23T03:00:33.209Z,234.07
2019-02-23T03:03:01.633Z,232.57
2019-02-23T03:05:30.138Z,262.75
2019-02-23T03:07:58.571Z,250.17
2019-02-23T03:10:26.970Z,236.12
2019-02-23T03:12:55.370Z,250.60
2019-02-23T03:15:23.794Z,278.27
2019-02-23T03:17:52.219Z,256.10
2019-02-23T03:20:20.733Z,260.63
2019-02-23T03:22:49.178Z,232.65
2019-02-23T03:25:17.569Z,218.17
2019-02-23T03:27:45.978Z,210.10
2019-02-23T03:30:14.377Z,237.67
2019-02-23T03:32:42.880Z,236.03
2019-02-23T03:35:11.296Z,244.80
2019-02-23T03:37:39.727Z,257.18
2019-02-23T03:40:08.776Z,249.73
2019-02-23T03:42:37.265Z,239.38
2019-02-23T03:45:05.699Z,221.40
2019-02-23T03:47:34.104Z,247.93
2019-02-23T03:50:02.532Z,225.93
2019-02-23T03:52:31.218Z,225.18
2019-02-23T03:54:59.637Z,238.80
2019-02-23T03:57:28.031Z,237.20
2019-02-23T03:59:56.463Z,243.73
2019-02-23T04:02:24.842Z,235.15
2019-02-23T04:04:53.248Z,258.82
2019-02-23T04:07:21.712Z,226.05
2019-02-23T04:09:50.138Z,242.37
2019-02-23T04:12:18.536Z,236.12
2019-02-23T04:14:46.942Z,240.43
2019-02-23T04:17:15.357Z,248.70
2019-02-23T04:19:43.799Z,283.82
2019-02-23T04:22:12.193Z,276.58
2019-02-23T04:24:40.633Z,239.38
2019-02-23T04:27:09.054Z,260.08
2019-02-23T04:29:37.469Z,235.17
2019-02-23T04:32:05.913Z,253.25
2019-02-23T04:34:34.315Z,233.47
2019-02-23T04:37:02.725Z,226.80
2019-02-23T04:39:31.132Z,263.20
2019-02-23T04:41:59.591Z,244.28
2019-02-23T04:44:28.027Z,249.98
2019-02-23T04:46:56.702Z,216.75
2019-02-23T04:49:26.108Z,232.22
2019-02-23T04:51:54.622Z,237.72
2019-02-23T04:54:23.022Z,249.25
2019-02-23T04:56:51.482Z,241.15
2019-02-23T04:59:19.893Z,237.35
2019-02-23T05:01:48.685Z,251.50
2019-02-23T05:04:17.314Z,271.90
2019-02-23T05:06:46.039Z,255.67
2019-02-23T05:09:14.443Z,210.68
2019-02-23T05:11:43.182Z,243.57
2019-02-23T05:14:11.577Z,220.37
2019-02-23T05:16:40.009Z,249.02
2019-02-23T05:19:08.410Z,267.82
2019-02-23T05:21:36.816Z,249.22
2019-02-23T05:24:05.212Z,253.70
2019-02-23T05:26:33.615Z,231.30
2019-02-23T05:29:02.008Z,237.15
2019-02-23T05:31:30.439Z,265.05
2019-02-23T05:33:58.837Z,249.55
2019-02-23T05:36:27.278Z,233.40
2019-02-23T05:38:55.642Z,234.70
2019-02-23T05:41:24.331Z,240.37
2019-02-23T05:43:52.717Z,262.32
2019-02-23T05:46:21.120Z,280.42
2019-02-23T05:48:49.580Z,237.12
2019-02-23T05:51:18.018Z,266.82
2019-02-23T05:53:46.421Z,276.92
2019-02-23T05:56:16.326Z,308.93
2019-02-23T05:58:45.136Z,297.07
2019-02-23T06:01:13.823Z,281.45
2019-02-23T06:03:42.481Z,275.32
2019-02-23T06:06:10.897Z,248.75
2019-02-23T06:08:39.651Z,273.70
2019-02-23T06:11:08.088Z,289.27
2019-02-23T06:13:36.470Z,287.08
2019-02-23T06:16:04.899Z,242.55
2019-02-23T06:18:33.571Z,232.45
2019-02-23T06:21:02.003Z,235.00
2019-02-23T06:23:30.418Z,237.48
2019-02-23T06:25:58.794Z,247.35
2019-02-23T06:28:27.203Z,255.77
2019-02-23T06:30:55.709Z,251.70
2019-02-23T06:33:24.115Z,226.25
2019-02-23T06:35:52.598Z,236.30
2019-02-23T06:38:21.025Z,232.18
2019-02-23T06:40:49.423Z,215.47
2019-02-23T06:43:17.857Z,238.72
2019-02-23T06:45:46.552Z,211.60
2019-02-23T06:48:14.972Z,184.75
2019-02-23T06:50:43.370Z,186.30
2019-02-23T06:53:11.790Z,192.68
2019-02-23T06:55:40.504Z,186.32
2019-02-23T06:58:09.166Z,198.95
2019-02-23T07:00:37.862Z,170.40
2019-02-23T07:03:06.251Z,201.22
2019-02-23T07:05:34.725Z,180.18
2019-02-23T07:08:03.375Z,196.53
2019-02-23T07:10:31.802Z,174.55
2019-02-23T07:13:00.205Z,179.45
2019-02-23T07:15:30.901Z,167.10
2019-02-23T07:17:59.662Z,179.80
2019-02-23T07:20:28.068Z,184.25
2019-02-23T07:22:56.395Z,164.85
2019-02-23T07:25:25.076Z,157.80
2019-02-23T07:27:53.471Z,172.05
2019-02-23T07:30:21.894Z,162.18
2019-02-23T07:32:50.564Z,164.85
2019-02-23T07:35:18.963Z,159.52
2019-02-23T07:37:47.381Z,153.93
2019-02-23T07:40:16.630Z,148.10
2019-02-23T07:42:45.060Z,139.15
2019-02-23T07:45:13.552Z,151.30
2019-02-23T07:47:41.952Z,145.92
2019-02-23T07:50:12.509Z,133.80
2019-02-23T07:52:40.912Z,133.32
2019-02-23T07:55:09.420Z,118.93
2019-02-23T07:57:38.095Z,120.28
2019-02-23T08:00:10.041Z,123.60
2019-02-23T08:02:38.876Z,115.95
2019-02-23T08:05:09.386Z,116.17
2019-02-23T08:07:39.826Z,108.50
2019-02-23T08:10:09.985Z,105.97
2019-02-23T08:12:41.072Z,102.78
2019-02-23T08:15:10.911Z,102.07
2019-02-23T08:17:39.519Z,104.97
2019-02-23T08:20:12.846Z,89.65
2019-02-23T08:22:41.311Z,91.53
2019-02-23T08:25:14.608Z,80.38
2019-02-23T08:27:43.014Z,88.80
2019-02-23T08:30:13.860Z,81.95
2019-02-23T08:32:42.405Z,80.87
2019-02-23T08:35:11.105Z,79.05
2019-02-23T08:37:39.510Z,70.95
2019-02-23T08:40:16.003Z,71.57
2019-02-23T08:42:44.394Z,72.43
2019-02-23T08:45:12.793Z,71.67
2019-02-23T08:47:41.177Z,66.10
2019-02-23T08:50:12.378Z,73.27
2019-02-23T08:52:48.579Z,62.10
2019-02-23T08:55:11.012Z,65.95
2019-02-23T08:57:39.401Z,63.13
2019-02-23T09:00:11.055Z,55.07
2019-02-23T09:02:39.545Z,54.87
2019-02-23T09:05:09.314Z,54.70
2019-02-23T09:07:37.718Z,49.50
2019-02-23T09:10:08.883Z,56.73
2019-02-23T09:12:37.292Z,51.00
2019-02-23T09:15:06.626Z,45.77
2019-02-23T09:17:35.032Z,50.73
2019-02-23T09:20:03.492Z,50.67
2019-02-23T09:22:31.901Z,50.63
2019-02-23T09:25:00.334Z,52.13
2019-02-23T09:27:28.718Z,52.30
2019-02-23T09:29:57.088Z,48.40
2019-02-23T09:32:25.512Z,44.70
2019-02-23T09:34:54.208Z,45.37
2019-02-23T09:37:22.604Z,46.17
2019-02-23T09:39:51.305Z,43.30
2019-02-23T09:42:19.691Z,43.03
2019-02-23T09:44:48.083Z,43.47
2019-02-23T09:47:16.779Z,44.83
2019-02-23T09:49:45.158Z,42.63
2019-02-23T09:52:13.567Z,35.73
2019-02-23T09:54:41.957Z,44.70
2019-02-23T09:57:10.417Z,40.27
2019-02-23T09:59:40.180Z,37.97
2019-02-23T10:02:08.742Z,38.53
2019-02-23T10:04:37.402Z,37.17
2019-02-23T10:07:05.805Z,39.40
2019-02-23T10:09:34.203Z,38.33
2019-02-23T10:12:02.602Z,35.97
2019-02-23T10:14:31.024Z,34.77
2019-02-23T10:16:59.702Z,31.93
2019-02-23T10:19:28.106Z,31.87
2019-02-23T10:21:56.528Z,31.13
2019-02-23T10:24:24.925Z,29.50
2019-02-23T10:26:53.313Z,26.23
2019-02-23T10:29:21.719Z,26.57
2019-02-23T10:31:50.103Z,26.33
2019-02-23T10:34:18.499Z,30.13
2019-02-23T10:36:46.896Z,25.90
2019-02-23T10:39:15.280Z,25.13
2019-02-23T10:41:43.685Z,24.70
2019-02-23T10:44:12.069Z,20.90
2019-02-23T10:46:40.488Z,23.00
2019-02-23T10:49:08.927Z,22.90
2019-02-23T10:51:37.343Z,23.33
2019-02-23T10:54:05.771Z,26.20
2019-02-23T10:56:34.181Z,22.60
2019-02-23T10:59:02.551Z,20.70
2019-02-23T11:01:30.929Z,24.67
2019-02-23T11:03:59.339Z,23.03
2019-02-23T11:06:27.700Z,23.10
2019-02-23T11:08:56.122Z,27.87
2019-02-23T11:11:24.777Z,22.83
2019-02-23T11:13:53.314Z,25.10
2019-02-23T11:16:21.732Z,22.43
2019-02-23T11:18:50.141Z,23.90
2019-02-23T11:21:18.550Z,23.33
2019-02-23T11:23:46.930Z,24.27
2019-02-23T11:26:16.981Z,24.57
2019-02-23T11:31:09.475Z,25.97
2019-02-23T11:33:37.847Z,24.63
2019-02-23T11:36:06.273Z,21.97
2019-02-23T11:38:34.748Z,20.57
2019-02-23T11:41:03.116Z,19.27
2019-02-23T11:43:31.801Z,18.97
2019-02-23T11:46:00.221Z,19.60
2019-02-23T11:48:28.586Z,21.17
2019-02-23T11:50:57.058Z,21.77
2019-02-23T11:53:25.467Z,24.90
2019-02-23T11:55:53.928Z,16.53
2019-02-23T11:58:22.311Z,18.43
2019-02-23T12:00:50.693Z,18.03
2019-02-23T12:03:19.087Z,20.33
2019-02-23T12:05:47.467Z,17.67
2019-02-23T12:08:15.841Z,17.70
2019-02-23T12:10:44.259Z,19.10
2019-02-23T12:13:12.650Z,17.23
2019-02-23T12:15:41.058Z,22.13
2019-02-23T12:18:09.453Z,19.90
2019-02-23T12:20:37.883Z,16.13
2019-02-23T12:23:06.552Z,15.30
2019-02-23T12:25:34.988Z,19.00
2019-02-23T12:28:03.356Z,18.47
2019-02-23T12:30:32.797Z,16.37
2019-02-23T12:33:01.369Z,17.53
2019-02-23T12:35:29.846Z,15.97
2019-02-23T12:37:58.251Z,14.47
2019-02-23T12:40:26.627Z,13.77
2019-02-23T12:42:55.041Z,16.07
2019-02-23T12:45:23.449Z,16.80
2019-02-23T12:47:51.887Z,18.47
2019-02-23T12:50:20.411Z,20.07
2019-02-23T12:52:48.831Z,21.93
2019-02-23T12:55:17.239Z,23.97
2019-02-23T12:57:45.626Z,23.03
2019-02-23T13:00:15.676Z,22.10
2019-02-23T13:02:44.072Z,18.87
2019-02-23T13:05:13.068Z,16.40
2019-02-23T13:07:41.563Z,16.50
2019-02-23T13:10:11.563Z,15.47
2019-02-23T13:12:52.004Z,14.23
2019-02-23T13:15:26.599Z,11.57
2019-02-23T13:18:04.176Z,14.97
2019-02-23T13:20:41.711Z,12.47
2019-02-23T13:23:21.710Z,13.93
2019-02-23T13:26:09.599Z,12.57
2019-02-23T13:28:50.158Z,14.87
2019-02-23T13:31:30.861Z,11.10
2019-02-23T13:34:20.170Z,12.07
2019-02-23T13:37:03.689Z,11.30
2019-02-23T13:39:50.193Z,11.17
2019-02-23T13:42:33.653Z,11.67
2019-02-23T13:45:17.012Z,12.03
2019-02-23T13:47:57.400Z,10.23
2019-02-23T13:50:31.717Z,11.20
2019-02-23T13:53:11.946Z,14.07
2019-02-23T13:55:58.453Z,10.50
2019-02-23T13:58:35.828Z,12.00
2019-02-23T14:01:13.183Z,10.90
2019-02-23T14:03:53.706Z,10.93
2019-02-23T14:06:31.316Z,10.93
2019-02-23T14:09:31.142Z,11.27
2019-02-23T14:12:14.527Z,11.27
2019-02-23T14:14:46.201Z,12.53
2019-02-23T14:17:26.235Z,12.07
2019-02-23T14:20:06.918Z,11.83
2019-02-23T14:22:50.175Z,13.40
2019-02-23T14:25:47.235Z,13.47
2019-02-23T14:28:44.286Z,10.43
2019-02-23T14:31:30.610Z,11.57
2019-02-23T14:34:05.085Z,11.27
2019-02-23T14:36:42.341Z,12.17
2019-02-23T14:39:46.687Z,13.00
2019-02-23T14:42:18.350Z,11.07
2019-02-23T14:45:01.757Z,11.90
2019-02-23T14:47:49.826Z,12.40
2019-02-23T14:50:33.047Z,12.00
2019-02-23T14:53:24.127Z,13.63
2019-02-23T14:55:58.698Z,13.07
2019-02-23T14:58:56.060Z,10.83
2019-02-23T15:01:30.737Z,11.73
2019-02-23T15:04:05.619Z,10.83
2019-02-23T15:06:46.472Z,9.97
2019-02-23T15:09:29.788Z,12.83
2019-02-23T15:12:12.904Z,9.90
2019-02-23T15:15:07.047Z,10.70
2019-02-23T15:17:44.522Z,9.93
2019-02-23T15:20:22.201Z,9.23
2019-02-23T15:23:13.269Z,10.83
2019-02-23T15:26:02.529Z,13.20
2019-02-23T15:28:42.840Z,11.20
2019-02-23T15:31:29.552Z,11.03
2019-02-23T15:34:37.208Z,8.40
2019-02-23T15:37:11.771Z,10.83
2019-02-23T15:40:01.236Z,9.97
2019-02-23T15:42:38.833Z,9.73
2019-02-23T15:45:28.631Z,11.10
2019-02-23T15:48:12.249Z,10.20
2019-02-23T15:50:40.953Z,12.60
2019-02-23T15:53:09.620Z,9.13
2019-02-23T15:55:38.040Z,12.57
2019-02-23T15:58:06.471Z,11.73
2019-02-23T16:00:35.161Z,11.90
2019-02-23T16:03:03.575Z,14.70
2019-02-23T16:05:31.979Z,12.43
2019-02-23T16:08:00.424Z,13.23
2019-02-23T16:10:28.868Z,13.17
2019-02-23T16:12:57.238Z,12.17
2019-02-23T16:15:25.932Z,13.07
2019-02-23T16:17:54.319Z,13.03
2019-02-23T16:20:22.718Z,12.43
2019-02-23T16:22:51.085Z,14.67
2019-02-23T16:25:19.533Z,12.80
2019-02-23T16:27:47.887Z,13.13
2019-02-23T16:30:16.298Z,12.93
2019-02-23T16:32:44.606Z,14.47
2019-02-23T16:35:13.307Z,16.00
2019-02-23T16:37:41.700Z,13.93
2019-02-23T16:40:10.117Z,15.63
2019-02-23T16:42:38.524Z,13.33
2019-02-23T16:45:08.940Z,14.90
2019-02-23T16:47:37.368Z,18.87
2019-02-23T16:50:07.651Z,15.07
2019-02-23T16:52:36.010Z,15.77
2019-02-23T16:55:04.414Z,17.77
2019-02-23T16:57:33.108Z,14.37
2019-02-23T17:00:01.491Z,16.57
2019-02-23T17:02:29.874Z,15.20
2019-02-23T17:04:58.321Z,16.47
2019-02-23T17:07:26.699Z,18.60
2019-02-23T17:09:56.151Z,20.20
2019-02-23T17:12:24.539Z,17.10
2019-02-23T17:14:52.953Z,21.40
2019-02-23T17:17:21.402Z,17.03
2019-02-23T17:19:49.813Z,18.60
2019-02-23T17:22:18.503Z,18.40
2019-02-23T17:24:46.882Z,22.50
2019-02-23T17:27:15.285Z,18.50
2019-02-23T17:29:43.682Z,19.00
2019-02-23T17:32:12.134Z,21.83
2019-02-23T17:34:40.475Z,18.47
2019-02-23T17:37:08.877Z,20.10
2019-02-23T17:39:37.261Z,20.70
2019-02-23T17:42:05.678Z,22.80
2019-02-23T17:44:34.066Z,18.37
2019-02-23T17:47:02.481Z,19.17
2019-02-23T17:49:30.962Z,18.83
2019-02-23T17:51:59.356Z,20.27
2019-02-23T17:54:27.758Z,19.50
2019-02-23T17:56:56.166Z,23.77
2019-02-23T17:59:24.629Z,22.50
2019-02-23T18:01:53.017Z,22.80
2019-02-23T18:04:21.418Z,24.27
2019-02-23T18:06:49.925Z,25.73
2019-02-23T18:09:18.355Z,22.27
2019-02-23T18:11:46.825Z,25.20
2019-02-23T18:14:15.470Z,25.50
2019-02-23T18:16:44.226Z,27.53
2019-02-23T18:19:12.789Z,26.07
2019-02-23T18:21:41.195Z,24.17
2019-02-23T18:24:09.659Z,23.70
2019-02-23T18:26:38.069Z,29.70
2019-02-23T18:29:07.740Z,24.87
2019-02-23T18:31:36.221Z,26.10
2019-02-23T18:34:04.624Z,30.47
2019-02-23T18:36:33.040Z,25.13
2019-02-23T18:39:01.484Z,26.33
2019-02-23T18:41:29.936Z,28.20
2019-02-23T18:43:58.347Z,24.67
2019-02-23T18:46:26.770Z,30.93
2019-02-23T18:48:55.231Z,28.27
2019-02-23T18:51:23.612Z,28.87
2019-02-23T18:53:53.675Z,33.40
2019-02-23T18:56:29.389Z,28.37
2019-02-23T18:58:52.118Z,28.10
2019-02-23T19:01:20.514Z,30.70
2019-02-23T19:03:49.268Z,27.63
2019-02-23T19:06:17.665Z,28.70
2019-02-23T19:08:47.403Z,26.83
2019-02-23T19:11:15.822Z,28.83
2019-02-23T19:13:44.236Z,31.53
2019-02-23T19:16:12.623Z,31.50
2019-02-23T19:18:41.035Z,30.90
2019-02-23T19:21:09.727Z,34.63
2019-02-23T19:23:38.198Z,29.73
2019-02-23T19:26:06.609Z,33.97
2019-02-23T19:28:42.896Z,30.70
2019-02-23T19:31:05.105Z,31.80
2019-02-23T19:33:33.799Z,27.13
2019-02-23T19:36:02.489Z,29.80
2019-02-23T19:38:30.892Z,28.80
2019-02-23T19:40:59.330Z,33.73
2019-02-23T19:43:27.693Z,32.13
2019-02-23T19:45:56.100Z,30.63
2019-02-23T19:48:24.558Z,32.13
2019-02-23T19:50:56.138Z,28.73
2019-02-23T19:53:24.583Z,34.80
2019-02-23T19:55:52.999Z,33.47
2019-02-23T19:58:21.395Z,34.27
2019-02-23T20:00:49.776Z,35.23
2019-02-23T20:03:18.190Z,32.33
2019-02-23T20:05:46.625Z,35.20
2019-02-23T20:08:15.143Z,38.47
2019-02-23T20:10:43.522Z,32.23
2019-02-23T20:13:11.924Z,34.30
2019-02-23T20:15:41.157Z,33.73
2019-02-23T20:18:09.558Z,37.33
2019-02-23T20:20:38.003Z,39.13
2019-02-23T20:23:06.409Z,41.47
2019-02-23T20:25:34.850Z,38.53
2019-02-23T20:28:03.302Z,39.27
2019-02-23T20:30:31.741Z,42.07
2019-02-23T20:33:00.120Z,42.27
2019-02-23T20:35:28.898Z,39.37
2019-02-23T20:37:57.268Z,43.17
2019-02-23T20:40:25.705Z,42.07
2019-02-23T20:42:54.107Z,39.10
2019-02-23T20:45:22.486Z,38.77
2019-02-23T20:47:50.890Z,40.67
2019-02-23T20:50:19.277Z,41.67
2019-02-23T20:52:47.699Z,39.27
2019-02-23T20:55:16.108Z,34.47
2019-02-23T20:57:44.784Z,35.30
2019-02-23T21:00:13.222Z,36.57
2019-02-23T21:02:41.654Z,34.67
2019-02-23T21:05:12.706Z,34.10
2019-02-23T21:07:41.158Z,39.03
2019-02-23T21:10:10.261Z,40.90
2019-02-23T21:12:38.654Z,36.23
2019-02-23T21:15:09.485Z,40.30
2019-02-23T21:17:37.873Z,40.43
2019-02-23T21:20:08.345Z,37.43
2019-02-23T21:22:36.728Z,36.67
2019-02-23T21:25:06.982Z,37.57
2019-02-23T21:27:35.501Z,41.87
2019-02-23T21:30:04.822Z,44.87
2019-02-23T21:32:33.558Z,43.27
2019-02-23T21:35:02.246Z,46.27
2019-02-23T21:37:30.606Z,46.50
2019-02-23T21:39:59.047Z,48.90
2019-02-23T21:42:27.451Z,50.03
2019-02-23T21:44:55.834Z,48.50
2019-02-23T21:47:24.245Z,44.40
2019-02-23T21:49:52.656Z,44.27
2019-02-23T21:52:21.059Z,43.97
2019-02-23T21:54:49.494Z,44.17
2019-02-23T21:57:22.176Z,42.63
2019-02-23T21:59:47.924Z,43.33
2019-02-23T22:02:16.591Z,43.87
2019-02-23T22:04:45.002Z,47.10
2019-02-23T22:07:13.426Z,39.67
2019-02-23T22:09:42.014Z,44.03
2019-02-23T22:12:10.453Z,41.50
2019-02-23T22:14:39.172Z,40.80
2019-02-23T22:17:07.596Z,43.77
2019-02-23T22:19:36.008Z,36.93
2019-02-23T22:22:04.426Z,42.30
2019-02-23T22:24:32.834Z,42.60
2019-02-23T22:27:01.515Z,41.58
2019-02-23T22:29:29.918Z,44.30
2019-02-23T22:31:58.360Z,41.80
2019-02-23T22:34:26.727Z,41.53
2019-02-23T22:36:55.134Z,43.83
2019-02-23T22:39:23.543Z,46.10
2019-02-23T22:41:52.009Z,46.30
2019-02-23T22:44:20.445Z,47.30
2019-02-23T22:46:48.832Z,46.68
2019-02-23T22:49:17.243Z,51.92
2019-02-23T22:51:45.633Z,46.37
2019-02-23T22:54:14.064Z,49.83
2019-02-23T22:56:42.448Z,50.20
2019-02-23T22:59:10.855Z,51.37
2019-02-23T23:01:39.435Z,50.40
2019-02-23T23:04:07.918Z,49.18
2019-02-23T23:06:36.317Z,46.73
2019-02-23T23:09:06.700Z,51.08
2019-02-23T23:11:35.096Z,51.20
2019-02-23T23:14:03.465Z,50.37
2019-02-23T23:16:31.871Z,49.93
2019-02-23T23:19:00.286Z,57.15
2019-02-23T23:21:28.686Z,56.13
2019-02-23T23:23:57.205Z,54.48
2019-02-23T23:26:25.616Z,53.98
2019-02-23T23:28:54.028Z,54.80
2019-02-23T23:31:22.420Z,56.37
2019-02-23T23:33:50.836Z,54.30
2019-02-23T23:36:19.237Z,55.80
2019-02-23T23:38:47.669Z,56.08
2019-02-23T23:41:16.062Z,55.95
2019-02-23T23:43:44.502Z,59.15
2019-02-23T23:46:12.911Z,56.55
2019-02-23T23:48:41.689Z,52.35
2019-02-23T23:51:10.098Z,56.10
2019-02-23T23:53:38.550Z,54.23
2019-02-23T23:56:06.944Z,51.43
2019-02-23T23:58:35.389Z,56.68
